createdAt,value
2023-02-06T00:00:00.088Z,9.80
2023-02-06T00:05:08.782Z,7.50
2023-02-06T00:10:16.849Z,8.30
2023-02-06T00:15:24.683Z,8.70
2023-02-06T00:20:32.266Z,8.00
2023-02-06T00:25:39.893Z,10.10
2023-02-06T00:30:50.560Z,8.30
2023-02-06T00:35:58.289Z,7.80
2023-02-06T00:41:06.708Z,6.50
2023-02-06T00:46:15.757Z,5.80
2023-02-06T00:51:24.661Z,9.10
2023-02-06T00:56:32.340Z,9.00
2023-02-06T01:01:39.864Z,9.00
2023-02-06T01:06:48.007Z,7.30
2023-02-06T01:11:55.462Z,8.70
2023-02-06T01:17:02.950Z,9.30
2023-02-06T01:22:10.755Z,7.70
2023-02-06T01:27:18.257Z,7.20
2023-02-06T01:32:25.665Z,7.40
2023-02-06T01:37:34.027Z,7.60
2023-02-06T01:42:43.442Z,6.60
2023-02-06T01:47:53.569Z,5.20
2023-02-06T01:53:01.535Z,9.30
2023-02-06T01:58:10.350Z,8.40
2023-02-06T02:03:18.363Z,6.10
2023-02-06T02:08:32.864Z,6.30
2023-02-06T02:13:41.781Z,5.40
2023-02-06T02:19:01.385Z,7.90
2023-02-06T02:24:15.277Z,5.50
2023-02-06T02:29:49.373Z,6.00
2023-02-06T02:35:14.632Z,2.50
2023-02-06T02:40:30.714Z,8.20
2023-02-06T02:45:47.107Z,6.10
2023-02-06T02:50:55.912Z,8.00
2023-02-06T02:56:03.425Z,5.80
2023-02-06T03:01:14.113Z,8.00
2023-02-06T03:06:36.610Z,9.00
2023-02-06T03:11:52.488Z,8.60
2023-02-06T03:17:06.565Z,7.00
2023-02-06T03:22:16.237Z,6.60
2023-02-06T03:27:24.140Z,5.20
2023-02-06T03:32:36.807Z,5.10
2023-02-06T03:37:45.106Z,6.80
2023-02-06T03:42:57.423Z,11.40
2023-02-06T03:48:07.950Z,8.10
2023-02-06T03:53:17.503Z,6.10
2023-02-06T03:58:25.973Z,7.90
2023-02-06T04:03:34.564Z,6.60
2023-02-06T04:08:42.206Z,8.20
2023-02-06T04:13:49.881Z,7.10
2023-02-06T04:18:58.420Z,7.40
2023-02-06T04:24:07.320Z,7.20
2023-02-06T04:29:15.530Z,7.10
2023-02-06T04:34:22.992Z,4.80
2023-02-06T04:39:31.111Z,5.80
2023-02-06T04:44:38.839Z,4.50
2023-02-06T04:49:46.896Z,8.20
2023-02-06T04:54:54.333Z,7.30
2023-02-06T05:00:01.802Z,6.30
2023-02-06T05:05:11.635Z,7.80
2023-02-06T05:10:19.971Z,7.70
2023-02-06T05:15:27.560Z,6.60
2023-02-06T05:20:35.653Z,7.20
2023-02-06T05:25:43.729Z,7.70
2023-02-06T05:41:08.914Z,9.80
2023-02-06T05:46:17.713Z,11.00
2023-02-06T05:51:25.896Z,6.50
2023-02-06T05:56:33.408Z,7.10
2023-02-06T06:01:41.002Z,9.10
2023-02-06T06:06:49.551Z,7.90
2023-02-06T06:11:57.352Z,6.50
2023-02-06T06:17:05.332Z,7.80
2023-02-06T06:22:13.831Z,9.00
2023-02-06T06:27:22.017Z,8.50
2023-02-06T06:32:30.525Z,7.50
2023-02-06T06:37:38.148Z,7.20
2023-02-06T06:42:46.184Z,7.70
2023-02-06T06:47:53.898Z,5.90
2023-02-06T06:53:03.111Z,7.00
2023-02-06T06:58:12.080Z,7.60
2023-02-06T07:03:19.875Z,5.50
2023-02-06T07:08:31.329Z,6.30
2023-02-06T07:13:39.451Z,9.20
2023-02-06T07:18:46.921Z,8.20
2023-02-06T07:23:54.728Z,6.40
2023-02-06T07:29:02.126Z,7.20
2023-02-06T07:34:10.888Z,7.80
2023-02-06T07:39:46.011Z,7.70
2023-02-06T07:44:53.943Z,7.40
2023-02-06T07:50:02.172Z,9.50
2023-02-06T07:55:11.583Z,9.60
2023-02-06T08:00:20.856Z,8.80
2023-02-06T08:05:28.184Z,7.70
2023-02-06T08:10:36.802Z,6.20
2023-02-06T08:15:45.345Z,11.70
2023-02-06T08:20:52.926Z,8.40
2023-02-06T08:26:07.899Z,9.90
2023-02-06T08:31:17.841Z,10.30
2023-02-06T08:36:26.829Z,9.90
2023-02-06T08:41:37.642Z,8.70
2023-02-06T08:47:04.676Z,9.00
2023-02-06T08:52:16.408Z,7.80
2023-02-06T08:57:24.031Z,7.30
2023-02-06T09:02:32.168Z,7.50
2023-02-06T09:07:40.573Z,7.00
2023-02-06T09:12:50.019Z,7.70
2023-02-06T09:17:58.562Z,6.80
2023-02-06T09:28:24.398Z,6.20
2023-02-06T09:33:32.182Z,4.20
2023-02-06T09:38:43.126Z,5.90
2023-02-06T09:43:55.747Z,6.60
2023-02-06T09:49:11.122Z,6.30
2023-02-06T09:54:30.686Z,5.00
2023-02-06T09:59:45.242Z,4.80
2023-02-06T10:04:59.122Z,5.80
2023-02-06T10:10:14.415Z,5.00
2023-02-06T10:15:36.835Z,4.20
2023-02-06T10:20:52.019Z,5.10
2023-02-06T10:26:07.431Z,5.70
2023-02-06T10:31:47.972Z,4.50
2023-02-06T10:37:10.681Z,5.00
2023-02-06T10:42:25.255Z,4.60
2023-02-06T10:47:40.342Z,4.20
2023-02-06T10:52:48.480Z,3.80
2023-02-06T10:58:06.098Z,5.20
2023-02-06T11:08:28.897Z,5.00
2023-02-06T11:13:40.077Z,5.60
2023-02-06T11:18:50.346Z,5.40
2023-02-06T11:24:12.515Z,4.80
2023-02-06T11:29:22.676Z,3.70
2023-02-06T11:34:35.925Z,4.80
2023-02-06T11:39:44.030Z,6.40
2023-02-06T11:44:53.131Z,5.80
2023-02-06T11:50:16.924Z,5.00
2023-02-06T11:55:27.778Z,4.90
2023-02-06T12:00:37.278Z,4.90
2023-02-06T12:05:45.250Z,4.00
2023-02-06T12:10:58.998Z,3.30
2023-02-06T12:16:09.333Z,3.80
2023-02-06T12:21:24.626Z,4.00
2023-02-06T12:28:28.521Z,4.10
2023-02-06T12:33:42.954Z,4.20
2023-02-06T12:38:54.363Z,4.50
2023-02-06T12:44:07.966Z,4.20
2023-02-06T12:49:22.458Z,3.50
2023-02-06T12:54:35.077Z,4.70
2023-02-06T12:59:58.743Z,4.70
2023-02-06T13:05:17.972Z,4.40
2023-02-06T13:10:28.239Z,4.90
2023-02-06T13:15:41.724Z,4.40
2023-02-06T13:21:18.840Z,6.10
2023-02-06T13:27:11.103Z,5.00
2023-02-06T13:32:50.408Z,5.80
2023-02-06T13:38:30.700Z,6.20
2023-02-06T13:43:40.536Z,5.70
2023-02-06T13:49:08.260Z,5.30
2023-02-06T13:59:47.807Z,5.40
2023-02-06T14:04:55.611Z,6.20
2023-02-06T14:10:27.306Z,6.10
2023-02-06T14:15:41.069Z,5.00
2023-02-06T14:20:57.677Z,4.70
2023-02-06T14:26:17.154Z,4.70
2023-02-06T14:31:48.469Z,5.50
2023-02-06T14:37:17.519Z,5.30
2023-02-06T14:42:28.540Z,4.30
2023-02-06T14:47:42.781Z,3.90
2023-02-06T14:52:53.047Z,4.70
2023-02-06T14:58:01.684Z,4.60
2023-02-06T15:03:16.808Z,5.10
2023-02-06T15:08:24.448Z,4.40
2023-02-06T15:13:36.247Z,4.80
2023-02-06T15:18:43.909Z,4.80
2023-02-06T15:24:07.594Z,4.90
2023-02-06T15:29:22.302Z,5.20
2023-02-06T15:34:29.799Z,4.80
2023-02-06T15:39:39.623Z,4.70
2023-02-06T15:44:49.451Z,4.60
2023-02-06T15:50:01.490Z,5.10
2023-02-06T15:55:22.558Z,4.50
2023-02-06T16:00:33.371Z,4.20
2023-02-06T16:05:43.205Z,5.60
2023-02-06T16:10:54.783Z,4.70
2023-02-06T16:16:19.911Z,5.20
2023-02-06T16:21:31.042Z,5.00
2023-02-06T16:28:23.555Z,5.50
2023-02-06T16:33:40.678Z,4.70
2023-02-06T16:39:02.711Z,6.00
2023-02-06T16:44:15.611Z,6.00
2023-02-06T16:49:24.825Z,8.20
2023-02-06T16:54:34.113Z,6.30
2023-02-06T16:59:43.011Z,7.30
2023-02-06T17:04:51.437Z,7.10
2023-02-06T17:10:02.203Z,7.90
2023-02-06T17:15:12.393Z,7.60
2023-02-06T17:20:29.726Z,8.10
2023-02-06T17:30:44.598Z,6.90
2023-02-06T17:35:52.538Z,6.60
2023-02-06T17:54:57.000Z,6.20
2023-02-06T18:00:08.610Z,22.70
2023-02-06T18:05:16.321Z,5.20
2023-02-06T18:10:26.201Z,13.60
2023-02-06T18:15:34.203Z,18.30
2023-02-06T18:20:43.828Z,18.80
2023-02-06T18:28:29.124Z,23.60
2023-02-06T18:33:35.637Z,14.60
2023-02-06T18:38:40.160Z,19.20
2023-02-06T18:43:45.817Z,13.80
2023-02-06T18:48:50.255Z,19.10
2023-02-06T18:53:55.156Z,12.60
2023-02-06T18:58:59.747Z,21.80
2023-02-06T19:04:04.904Z,23.00
2023-02-06T19:09:09.453Z,20.00
2023-02-06T19:14:16.547Z,17.90
2023-02-06T19:24:27.529Z,25.30
2023-02-06T19:29:36.057Z,28.30
2023-02-06T19:34:44.776Z,26.20
2023-02-06T19:39:48.762Z,8.70
2023-02-06T19:44:54.228Z,27.10
2023-02-06T19:49:58.398Z,25.30
2023-02-06T19:55:02.289Z,21.50
2023-02-06T20:00:08.214Z,21.20
2023-02-06T20:05:13.170Z,14.50
2023-02-06T20:10:17.396Z,18.00
2023-02-06T20:15:22.049Z,20.50
2023-02-06T20:20:26.703Z,18.10
2023-02-06T20:28:16.255Z,16.60
2023-02-06T20:33:24.996Z,23.90
2023-02-06T20:38:33.291Z,14.70
2023-02-06T20:43:41.889Z,10.80
2023-02-06T20:52:19.485Z,19.90
2023-02-06T20:57:27.110Z,19.90
2023-02-06T21:06:06.799Z,24.30
2023-02-06T21:11:16.225Z,15.60
2023-02-06T21:16:23.840Z,13.90
2023-02-06T21:21:32.214Z,15.60
2023-02-06T21:26:40.505Z,23.40
2023-02-06T21:31:52.330Z,23.00
2023-02-06T21:37:05.797Z,21.80
2023-02-06T21:42:16.074Z,16.90
2023-02-06T21:47:24.348Z,23.30
2023-02-06T21:52:32.147Z,28.70
2023-02-06T21:57:39.546Z,20.70
2023-02-06T22:02:47.398Z,24.90
2023-02-06T22:07:55.309Z,18.60
2023-02-06T22:13:03.206Z,23.80
2023-02-06T22:18:11.802Z,27.10
2023-02-06T22:23:19.337Z,21.80
2023-02-06T22:28:26.606Z,28.10
2023-02-06T22:33:34.287Z,23.50
2023-02-06T22:38:44.828Z,21.80
2023-02-06T22:43:53.500Z,16.20
2023-02-06T22:49:01.932Z,9.80
2023-02-06T22:54:11.782Z,24.70
2023-02-06T22:59:22.203Z,24.50
2023-02-06T23:04:31.152Z,29.60
2023-02-06T23:09:41.403Z,28.70
2023-02-06T23:14:49.212Z,17.70
2023-02-06T23:19:56.809Z,24.90
2023-02-06T23:25:04.675Z,26.80
2023-02-06T23:30:14.264Z,33.70
2023-02-06T23:35:21.807Z,30.40
2023-02-06T23:40:29.761Z,31.80
2023-02-06T23:45:37.911Z,33.20
2023-02-06T23:50:46.220Z,31.40
2023-02-06T23:55:53.561Z,35.20
